sensor_id;sensor_type;location;lat;lon;timestamp;temperature;humidity
23669;DHT22;12011;47.422;15.018;2022-12-07T00:00:25;0.30;99.90
23669;DHT22;12011;47.422;15.018;2022-12-07T00:03:01;0.20;99.90
23669;DHT22;12011;47.422;15.018;2022-12-07T00:05:33;0.20;99.90
23669;DHT22;12011;47.422;15.018;2022-12-07T00:08:03;0.00;99.90
23669;DHT22;12011;47.422;15.018;2022-12-07T00:10:44;0.00;99.90
23669;DHT22;12011;47.422;15.018;2022-12-07T00:13:24;0.00;99.90
23669;DHT22;12011;47.422;15.018;2022-12-07T00:15:59;0.20;99.90
23669;DHT22;12011;47.422;15.018;2022-12-07T00:18:33;0.00;99.90
23669;DHT22;12011;47.422;15.018;2022-12-07T00:21:11;0.00;99.90
23669;DHT22;12011;47.422;15.018;2022-12-07T00:23:56;-0.10;99.90
23669;DHT22;12011;47.422;15.018;2022-12-07T00:26:32;0.00;99.90
23669;DHT22;12011;47.422;15.018;2022-12-07T00:29:07;0.00;99.90
23669;DHT22;12011;47.422;15.018;2022-12-07T00:31:41;0.00;99.90
23669;DHT22;12011;47.422;15.018;2022-12-07T00:34:17;0.10;99.90
23669;DHT22;12011;47.422;15.018;2022-12-07T00:36:50;0.10;99.90
23669;DHT22;12011;47.422;15.018;2022-12-07T00:39:29;0.20;99.90
23669;DHT22;12011;47.422;15.018;2022-12-07T00:42:09;0.20;99.90
23669;DHT22;12011;47.422;15.018;2022-12-07T00:44:43;0.30;99.90
23669;DHT22;12011;47.422;15.018;2022-12-07T00:47:16;0.30;99.90
23669;DHT22;12011;47.422;15.018;2022-12-07T00:49:48;0.30;99.90
23669;DHT22;12011;47.422;15.018;2022-12-07T00:52:21;0.30;99.90
23669;DHT22;12011;47.422;15.018;2022-12-07T00:54:52;0.30;99.90
23669;DHT22;12011;47.422;15.018;2022-12-07T00:57:25;0.30;99.90
23669;DHT22;12011;47.422;15.018;2022-12-07T01:00:02;0.40;99.90
23669;DHT22;12011;47.422;15.018;2022-12-07T01:02:36;0.40;99.90
23669;DHT22;12011;47.422;15.018;2022-12-07T01:05:09;0.40;99.90
23669;DHT22;12011;47.422;15.018;2022-12-07T01:07:40;0.40;99.90
23669;DHT22;12011;47.422;15.018;2022-12-07T01:10:14;0.40;99.90
23669;DHT22;12011;47.422;15.018;2022-12-07T01:12:48;0.50;99.90
23669;DHT22;12011;47.422;15.018;2022-12-07T01:15:21;0.50;99.90
23669;DHT22;12011;47.422;15.018;2022-12-07T01:17:54;0.50;99.90
23669;DHT22;12011;47.422;15.018;2022-12-07T01:20:25;0.50;99.90
23669;DHT22;12011;47.422;15.018;2022-12-07T01:23:04;0.50;99.90
23669;DHT22;12011;47.422;15.018;2022-12-07T01:25:34;0.60;99.90
23669;DHT22;12011;47.422;15.018;2022-12-07T01:28:08;0.60;99.90
23669;DHT22;12011;47.422;15.018;2022-12-07T01:30:56;0.60;99.90
23669;DHT22;12011;47.422;15.018;2022-12-07T01:33:33;0.60;99.90
23669;DHT22;12011;47.422;15.018;2022-12-07T01:36:08;0.70;99.90
23669;DHT22;12011;47.422;15.018;2022-12-07T01:38:45;0.60;99.90
23669;DHT22;12011;47.422;15.018;2022-12-07T01:41:19;0.70;99.90
23669;DHT22;12011;47.422;15.018;2022-12-07T01:44:19;0.70;99.90
23669;DHT22;12011;47.422;15.018;2022-12-07T01:46:53;0.70;99.90
23669;DHT22;12011;47.422;15.018;2022-12-07T01:49:31;0.70;99.90
23669;DHT22;12011;47.422;15.018;2022-12-07T01:52:15;0.70;99.90
23669;DHT22;12011;47.422;15.018;2022-12-07T01:54:56;0.80;99.90
23669;DHT22;12011;47.422;15.018;2022-12-07T01:57:31;0.80;99.90
23669;DHT22;12011;47.422;15.018;2022-12-07T02:00:17;0.80;99.90
23669;DHT22;12011;47.422;15.018;2022-12-07T02:02:57;0.80;99.90
23669;DHT22;12011;47.422;15.018;2022-12-07T02:05:47;0.80;99.90
23669;DHT22;12011;47.422;15.018;2022-12-07T02:08:20;0.80;99.90
23669;DHT22;12011;47.422;15.018;2022-12-07T02:10:54;0.80;99.90
23669;DHT22;12011;47.422;15.018;2022-12-07T02:13:31;0.80;99.90
23669;DHT22;12011;47.422;15.018;2022-12-07T02:16:25;0.70;99.90
23669;DHT22;12011;47.422;15.018;2022-12-07T02:22:51;0.70;99.90
23669;DHT22;12011;47.422;15.018;2022-12-07T02:25:51;0.70;99.90
23669;DHT22;12011;47.422;15.018;2022-12-07T02:28:35;0.70;99.90
23669;DHT22;12011;47.422;15.018;2022-12-07T02:31:19;0.70;99.90
23669;DHT22;12011;47.422;15.018;2022-12-07T02:33:57;0.70;99.90
23669;DHT22;12011;47.422;15.018;2022-12-07T02:36:42;0.80;99.90
23669;DHT22;12011;47.422;15.018;2022-12-07T02:39:25;0.80;99.90
23669;DHT22;12011;47.422;15.018;2022-12-07T02:42:06;0.70;99.90
23669;DHT22;12011;47.422;15.018;2022-12-07T02:44:42;0.70;99.90
23669;DHT22;12011;47.422;15.018;2022-12-07T02:47:19;0.70;99.90
23669;DHT22;12011;47.422;15.018;2022-12-07T02:49:51;0.70;99.90
23669;DHT22;12011;47.422;15.018;2022-12-07T02:52:24;0.70;99.90
23669;DHT22;12011;47.422;15.018;2022-12-07T02:54:57;0.60;99.90
23669;DHT22;12011;47.422;15.018;2022-12-07T02:57:48;0.60;99.90
23669;DHT22;12011;47.422;15.018;2022-12-07T03:00:37;0.70;99.90
23669;DHT22;12011;47.422;15.018;2022-12-07T03:03:18;0.70;99.90
23669;DHT22;12011;47.422;15.018;2022-12-07T03:06:13;0.70;99.90
23669;DHT22;12011;47.422;15.018;2022-12-07T03:09:00;0.70;99.90
23669;DHT22;12011;47.422;15.018;2022-12-07T03:11:47;0.70;99.90
23669;DHT22;12011;47.422;15.018;2022-12-07T03:14:32;0.70;99.90
23669;DHT22;12011;47.422;15.018;2022-12-07T03:17:23;0.70;99.90
23669;DHT22;12011;47.422;15.018;2022-12-07T03:20:07;0.70;99.90
23669;DHT22;12011;47.422;15.018;2022-12-07T03:22:47;0.80;99.90
23669;DHT22;12011;47.422;15.018;2022-12-07T03:25:20;0.80;99.90
23669;DHT22;12011;47.422;15.018;2022-12-07T03:27:58;0.70;99.90
23669;DHT22;12011;47.422;15.018;2022-12-07T03:30:42;0.70;99.90
23669;DHT22;12011;47.422;15.018;2022-12-07T03:33:30;0.70;99.90
23669;DHT22;12011;47.422;15.018;2022-12-07T03:36:17;0.70;99.90
23669;DHT22;12011;47.422;15.018;2022-12-07T03:39:00;0.70;99.90
23669;DHT22;12011;47.422;15.018;2022-12-07T03:41:38;0.70;99.90
23669;DHT22;12011;47.422;15.018;2022-12-07T03:44:16;0.70;99.90
23669;DHT22;12011;47.422;15.018;2022-12-07T03:46:56;0.70;99.90
23669;DHT22;12011;47.422;15.018;2022-12-07T03:49:37;0.70;99.90
23669;DHT22;12011;47.422;15.018;2022-12-07T03:52:22;0.70;99.90
23669;DHT22;12011;47.422;15.018;2022-12-07T03:54:59;0.70;99.90
23669;DHT22;12011;47.422;15.018;2022-12-07T03:57:35;0.70;99.90
23669;DHT22;12011;47.422;15.018;2022-12-07T04:00:10;0.70;99.90
23669;DHT22;12011;47.422;15.018;2022-12-07T04:02:48;0.70;99.90
23669;DHT22;12011;47.422;15.018;2022-12-07T04:05:21;0.70;99.90
23669;DHT22;12011;47.422;15.018;2022-12-07T04:07:56;0.70;99.90
23669;DHT22;12011;47.422;15.018;2022-12-07T04:10:27;0.70;99.90
23669;DHT22;12011;47.422;15.018;2022-12-07T04:12:59;0.70;99.90
23669;DHT22;12011;47.422;15.018;2022-12-07T04:15:32;0.70;99.90
23669;DHT22;12011;47.422;15.018;2022-12-07T04:20:51;0.70;99.90
23669;DHT22;12011;47.422;15.018;2022-12-07T04:23:29;0.70;99.90
23669;DHT22;12011;47.422;15.018;2022-12-07T04:26:02;0.80;99.90
23669;DHT22;12011;47.422;15.018;2022-12-07T04:28:46;0.80;99.90
23669;DHT22;12011;47.422;15.018;2022-12-07T04:31:17;0.80;99.90
23669;DHT22;12011;47.422;15.018;2022-12-07T04:33:49;0.80;99.90
23669;DHT22;12011;47.422;15.018;2022-12-07T04:36:26;0.80;99.90
23669;DHT22;12011;47.422;15.018;2022-12-07T04:39:03;0.80;99.90
23669;DHT22;12011;47.422;15.018;2022-12-07T04:41:39;0.80;99.90
23669;DHT22;12011;47.422;15.018;2022-12-07T04:44:13;0.80;99.90
23669;DHT22;12011;47.422;15.018;2022-12-07T04:46:51;0.80;99.90
23669;DHT22;12011;47.422;15.018;2022-12-07T04:49:29;0.80;99.90
23669;DHT22;12011;47.422;15.018;2022-12-07T04:52:01;0.80;99.90
23669;DHT22;12011;47.422;15.018;2022-12-07T04:54:34;0.80;99.90
23669;DHT22;12011;47.422;15.018;2022-12-07T04:57:07;0.80;99.90
23669;DHT22;12011;47.422;15.018;2022-12-07T04:59:39;0.80;99.90
23669;DHT22;12011;47.422;15.018;2022-12-07T05:02:10;0.80;99.90
23669;DHT22;12011;47.422;15.018;2022-12-07T05:04:40;0.80;99.90
23669;DHT22;12011;47.422;15.018;2022-12-07T05:07:16;0.80;99.90
23669;DHT22;12011;47.422;15.018;2022-12-07T05:09:53;0.70;99.90
23669;DHT22;12011;47.422;15.018;2022-12-07T05:12:30;0.80;99.90
23669;DHT22;12011;47.422;15.018;2022-12-07T05:15:02;0.80;99.90
23669;DHT22;12011;47.422;15.018;2022-12-07T05:17:35;0.80;99.90
23669;DHT22;12011;47.422;15.018;2022-12-07T05:20:12;0.80;99.90
23669;DHT22;12011;47.422;15.018;2022-12-07T05:22:48;0.80;99.90
23669;DHT22;12011;47.422;15.018;2022-12-07T05:25:24;0.70;99.90
23669;DHT22;12011;47.422;15.018;2022-12-07T05:27:55;0.80;99.90
23669;DHT22;12011;47.422;15.018;2022-12-07T05:30:25;0.80;99.90
23669;DHT22;12011;47.422;15.018;2022-12-07T05:32:56;0.80;99.90
23669;DHT22;12011;47.422;15.018;2022-12-07T05:35:26;0.80;99.90
23669;DHT22;12011;47.422;15.018;2022-12-07T05:37:56;0.80;99.90
23669;DHT22;12011;47.422;15.018;2022-12-07T05:40:28;0.80;99.90
23669;DHT22;12011;47.422;15.018;2022-12-07T05:42:58;0.80;99.90
23669;DHT22;12011;47.422;15.018;2022-12-07T05:45:27;0.90;99.90
23669;DHT22;12011;47.422;15.018;2022-12-07T05:47:57;0.90;99.90
23669;DHT22;12011;47.422;15.018;2022-12-07T05:50:26;0.80;99.90
23669;DHT22;12011;47.422;15.018;2022-12-07T05:53:02;0.80;99.90
23669;DHT22;12011;47.422;15.018;2022-12-07T05:55:34;0.80;99.90
23669;DHT22;12011;47.422;15.018;2022-12-07T05:58:03;0.80;99.90
23669;DHT22;12011;47.422;15.018;2022-12-07T06:00:45;0.80;99.90
23669;DHT22;12011;47.422;15.018;2022-12-07T06:03:15;0.80;99.90
23669;DHT22;12011;47.422;15.018;2022-12-07T06:05:45;0.80;99.90
23669;DHT22;12011;47.422;15.018;2022-12-07T06:08:14;0.80;99.90
23669;DHT22;12011;47.422;15.018;2022-12-07T06:10:47;0.80;99.90
23669;DHT22;12011;47.422;15.018;2022-12-07T06:13:39;0.80;99.90
23669;DHT22;12011;47.422;15.018;2022-12-07T06:16:06;0.80;99.90
23669;DHT22;12011;47.422;15.018;2022-12-07T06:18:36;0.80;99.90
23669;DHT22;12011;47.422;15.018;2022-12-07T06:21:05;0.80;99.90
23669;DHT22;12011;47.422;15.018;2022-12-07T06:23:35;0.80;99.90
23669;DHT22;12011;47.422;15.018;2022-12-07T06:26:07;0.80;99.90
23669;DHT22;12011;47.422;15.018;2022-12-07T06:28:37;0.80;99.90
23669;DHT22;12011;47.422;15.018;2022-12-07T06:31:07;0.80;99.90
23669;DHT22;12011;47.422;15.018;2022-12-07T06:33:36;0.70;99.90
23669;DHT22;12011;47.422;15.018;2022-12-07T06:36:06;0.70;99.90
23669;DHT22;12011;47.422;15.018;2022-12-07T06:38:36;0.70;99.90
23669;DHT22;12011;47.422;15.018;2022-12-07T06:41:09;0.70;99.90
23669;DHT22;12011;47.422;15.018;2022-12-07T06:43:38;0.70;99.90
23669;DHT22;12011;47.422;15.018;2022-12-07T06:46:17;0.70;99.90
23669;DHT22;12011;47.422;15.018;2022-12-07T06:51:54;0.70;99.90
23669;DHT22;12011;47.422;15.018;2022-12-07T06:54:49;0.70;99.90
23669;DHT22;12011;47.422;15.018;2022-12-07T06:57:34;0.80;99.90
23669;DHT22;12011;47.422;15.018;2022-12-07T07:00:09;0.80;99.90
23669;DHT22;12011;47.422;15.018;2022-12-07T07:02:40;0.80;99.90
23669;DHT22;12011;47.422;15.018;2022-12-07T07:05:10;0.70;99.90
23669;DHT22;12011;47.422;15.018;2022-12-07T07:07:39;0.80;99.90
23669;DHT22;12011;47.422;15.018;2022-12-07T07:10:09;0.80;99.90
23669;DHT22;12011;47.422;15.018;2022-12-07T07:12:42;0.80;99.90
23669;DHT22;12011;47.422;15.018;2022-12-07T07:15:11;0.80;99.90
23669;DHT22;12011;47.422;15.018;2022-12-07T07:17:41;0.90;99.90
23669;DHT22;12011;47.422;15.018;2022-12-07T07:20:12;0.80;99.90
23669;DHT22;12011;47.422;15.018;2022-12-07T07:22:42;0.90;99.90
23669;DHT22;12011;47.422;15.018;2022-12-07T07:25:12;0.90;99.90
23669;DHT22;12011;47.422;15.018;2022-12-07T07:27:44;1.00;99.90
23669;DHT22;12011;47.422;15.018;2022-12-07T07:30:14;1.00;99.90
23669;DHT22;12011;47.422;15.018;2022-12-07T07:32:44;1.00;99.90
23669;DHT22;12011;47.422;15.018;2022-12-07T07:35:13;1.10;99.90
23669;DHT22;12011;47.422;15.018;2022-12-07T07:37:43;1.10;99.90
23669;DHT22;12011;47.422;15.018;2022-12-07T07:40:12;1.10;99.90
23669;DHT22;12011;47.422;15.018;2022-12-07T07:42:47;1.10;99.90
23669;DHT22;12011;47.422;15.018;2022-12-07T07:45:18;1.10;99.90
23669;DHT22;12011;47.422;15.018;2022-12-07T07:47:47;1.10;99.90
23669;DHT22;12011;47.422;15.018;2022-12-07T07:50:18;1.10;99.90
23669;DHT22;12011;47.422;15.018;2022-12-07T07:52:48;1.10;99.90
23669;DHT22;12011;47.422;15.018;2022-12-07T07:55:18;1.10;99.90
23669;DHT22;12011;47.422;15.018;2022-12-07T07:57:50;1.10;99.90
23669;DHT22;12011;47.422;15.018;2022-12-07T08:00:21;1.10;99.90
23669;DHT22;12011;47.422;15.018;2022-12-07T08:02:51;1.20;99.90
23669;DHT22;12011;47.422;15.018;2022-12-07T08:05:20;1.20;99.90
23669;DHT22;12011;47.422;15.018;2022-12-07T08:07:50;1.20;99.90
23669;DHT22;12011;47.422;15.018;2022-12-07T08:10:19;1.20;99.90
23669;DHT22;12011;47.422;15.018;2022-12-07T08:12:51;1.20;99.90
23669;DHT22;12011;47.422;15.018;2022-12-07T08:15:35;1.20;99.90
23669;DHT22;12011;47.422;15.018;2022-12-07T08:18:06;1.30;99.90
23669;DHT22;12011;47.422;15.018;2022-12-07T08:20:37;1.30;99.90
23669;DHT22;12011;47.422;15.018;2022-12-07T08:23:08;1.30;99.90
23669;DHT22;12011;47.422;15.018;2022-12-07T08:25:39;1.30;99.90
23669;DHT22;12011;47.422;15.018;2022-12-07T08:28:11;1.30;99.90
23669;DHT22;12011;47.422;15.018;2022-12-07T08:30:43;1.40;99.90
23669;DHT22;12011;47.422;15.018;2022-12-07T08:33:18;1.30;99.90
23669;DHT22;12011;47.422;15.018;2022-12-07T08:35:59;1.40;99.90
23669;DHT22;12011;47.422;15.018;2022-12-07T08:38:31;1.40;99.90
23669;DHT22;12011;47.422;15.018;2022-12-07T08:41:00;1.40;99.90
23669;DHT22;12011;47.422;15.018;2022-12-07T08:43:34;1.40;99.90
23669;DHT22;12011;47.422;15.018;2022-12-07T08:46:09;1.30;99.90
23669;DHT22;12011;47.422;15.018;2022-12-07T08:48:46;1.40;99.90
23669;DHT22;12011;47.422;15.018;2022-12-07T08:51:18;1.40;99.90
23669;DHT22;12011;47.422;15.018;2022-12-07T08:54:04;1.50;99.90
23669;DHT22;12011;47.422;15.018;2022-12-07T08:56:36;1.50;99.90
23669;DHT22;12011;47.422;15.018;2022-12-07T08:59:09;1.60;99.90
23669;DHT22;12011;47.422;15.018;2022-12-07T09:01:39;1.60;99.90
23669;DHT22;12011;47.422;15.018;2022-12-07T09:04:39;1.60;99.90
23669;DHT22;12011;47.422;15.018;2022-12-07T09:33:21;2.10;99.90
23669;DHT22;12011;47.422;15.018;2022-12-07T09:35:52;2.10;99.90
23669;DHT22;12011;47.422;15.018;2022-12-07T09:38:21;2.10;99.90
23669;DHT22;12011;47.422;15.018;2022-12-07T09:40:54;2.10;99.90
23669;DHT22;12011;47.422;15.018;2022-12-07T09:43:25;2.20;99.90
23669;DHT22;12011;47.422;15.018;2022-12-07T09:45:56;2.30;99.90
23669;DHT22;12011;47.422;15.018;2022-12-07T09:48:34;2.20;99.90
23669;DHT22;12011;47.422;15.018;2022-12-07T09:51:18;2.20;99.90
23669;DHT22;12011;47.422;15.018;2022-12-07T09:53:49;2.20;99.90
23669;DHT22;12011;47.422;15.018;2022-12-07T09:56:31;2.20;99.90
23669;DHT22;12011;47.422;15.018;2022-12-07T09:59:03;2.20;99.90
23669;DHT22;12011;47.422;15.018;2022-12-07T10:01:34;2.20;99.90
23669;DHT22;12011;47.422;15.018;2022-12-07T10:04:14;2.30;99.90
23669;DHT22;12011;47.422;15.018;2022-12-07T10:06:48;2.30;99.90
23669;DHT22;12011;47.422;15.018;2022-12-07T10:09:21;2.30;99.90
23669;DHT22;12011;47.422;15.018;2022-12-07T10:12:08;2.40;99.90
23669;DHT22;12011;47.422;15.018;2022-12-07T10:14:56;2.30;99.90
23669;DHT22;12011;47.422;15.018;2022-12-07T10:17:37;2.20;99.90
23669;DHT22;12011;47.422;15.018;2022-12-07T10:20:21;2.20;99.90
23669;DHT22;12011;47.422;15.018;2022-12-07T10:22:59;2.30;99.90
23669;DHT22;12011;47.422;15.018;2022-12-07T10:25:32;2.30;99.90
23669;DHT22;12011;47.422;15.018;2022-12-07T10:28:15;2.40;99.90
23669;DHT22;12011;47.422;15.018;2022-12-07T10:30:50;2.50;99.90
23669;DHT22;12011;47.422;15.018;2022-12-07T10:33:33;2.50;99.90
23669;DHT22;12011;47.422;15.018;2022-12-07T10:36:22;2.60;99.90
23669;DHT22;12011;47.422;15.018;2022-12-07T10:39:00;2.60;99.90
23669;DHT22;12011;47.422;15.018;2022-12-07T10:41:31;2.80;99.90
23669;DHT22;12011;47.422;15.018;2022-12-07T10:44:01;2.80;99.90
23669;DHT22;12011;47.422;15.018;2022-12-07T10:46:54;3.00;99.90
23669;DHT22;12011;47.422;15.018;2022-12-07T10:49:49;3.00;99.90
23669;DHT22;12011;47.422;15.018;2022-12-07T10:52:55;3.00;99.90
23669;DHT22;12011;47.422;15.018;2022-12-07T10:55:53;3.10;99.90
23669;DHT22;12011;47.422;15.018;2022-12-07T10:58:48;3.20;99.90
23669;DHT22;12011;47.422;15.018;2022-12-07T11:01:33;3.20;99.90
23669;DHT22;12011;47.422;15.018;2022-12-07T11:04:28;3.30;99.90
23669;DHT22;12011;47.422;15.018;2022-12-07T11:07:10;3.40;99.90
23669;DHT22;12011;47.422;15.018;2022-12-07T11:10:05;3.40;99.90
23669;DHT22;12011;47.422;15.018;2022-12-07T11:12:52;3.50;99.90
23669;DHT22;12011;47.422;15.018;2022-12-07T11:15:42;3.50;99.90
23669;DHT22;12011;47.422;15.018;2022-12-07T11:18:27;3.70;99.90
23669;DHT22;12011;47.422;15.018;2022-12-07T11:21:09;3.80;99.90
23669;DHT22;12011;47.422;15.018;2022-12-07T11:23:51;3.70;99.90
23669;DHT22;12011;47.422;15.018;2022-12-07T11:26:47;3.60;99.90
23669;DHT22;12011;47.422;15.018;2022-12-07T11:29:43;3.60;99.90
23669;DHT22;12011;47.422;15.018;2022-12-07T11:32:36;3.60;99.90
23669;DHT22;12011;47.422;15.018;2022-12-07T11:35:22;3.60;99.90
23669;DHT22;12011;47.422;15.018;2022-12-07T11:38:01;3.60;99.90
23669;DHT22;12011;47.422;15.018;2022-12-07T11:40:36;3.60;99.90
23669;DHT22;12011;47.422;15.018;2022-12-07T11:43:20;3.60;99.90
23669;DHT22;12011;47.422;15.018;2022-12-07T11:45:58;3.70;99.90
23669;DHT22;12011;47.422;15.018;2022-12-07T11:48:37;3.70;99.90
23669;DHT22;12011;47.422;15.018;2022-12-07T11:51:12;3.70;99.90
23669;DHT22;12011;47.422;15.018;2022-12-07T11:53:48;3.80;99.90
23669;DHT22;12011;47.422;15.018;2022-12-07T11:56:23;3.80;99.90
23669;DHT22;12011;47.422;15.018;2022-12-07T11:59:02;4.00;99.90
23669;DHT22;12011;47.422;15.018;2022-12-07T12:01:48;4.10;99.90
23669;DHT22;12011;47.422;15.018;2022-12-07T12:04:40;4.10;99.90
23669;DHT22;12011;47.422;15.018;2022-12-07T12:07:26;4.20;99.90
23669;DHT22;12011;47.422;15.018;2022-12-07T12:10:02;4.20;99.90
23669;DHT22;12011;47.422;15.018;2022-12-07T12:13:02;4.10;99.90
23669;DHT22;12011;47.422;15.018;2022-12-07T12:16:03;4.10;99.90
23669;DHT22;12011;47.422;15.018;2022-12-07T12:18:58;4.00;99.90
23669;DHT22;12011;47.422;15.018;2022-12-07T12:21:35;3.90;99.90
23669;DHT22;12011;47.422;15.018;2022-12-07T12:24:12;4.10;99.90
23669;DHT22;12011;47.422;15.018;2022-12-07T12:26:52;4.20;99.90
23669;DHT22;12011;47.422;15.018;2022-12-07T12:29:32;4.30;99.90
23669;DHT22;12011;47.422;15.018;2022-12-07T12:32:14;4.30;99.90
23669;DHT22;12011;47.422;15.018;2022-12-07T12:35:17;4.30;99.90
23669;DHT22;12011;47.422;15.018;2022-12-07T12:37:54;4.30;99.70
23669;DHT22;12011;47.422;15.018;2022-12-07T12:40:47;4.40;99.90
23669;DHT22;12011;47.422;15.018;2022-12-07T12:43:42;4.30;98.60
23669;DHT22;12011;47.422;15.018;2022-12-07T12:52:56;4.20;99.90
23669;DHT22;12011;47.422;15.018;2022-12-07T12:59:22;3.80;99.90
23669;DHT22;12011;47.422;15.018;2022-12-07T13:01:56;3.70;99.90
23669;DHT22;12011;47.422;15.018;2022-12-07T13:04:52;3.70;99.90
23669;DHT22;12011;47.422;15.018;2022-12-07T13:07:52;3.50;99.90
23669;DHT22;12011;47.422;15.018;2022-12-07T13:10:41;3.50;99.90
23669;DHT22;12011;47.422;15.018;2022-12-07T13:13:31;3.50;99.90
23669;DHT22;12011;47.422;15.018;2022-12-07T13:22:46;3.30;99.90
23669;DHT22;12011;47.422;15.018;2022-12-07T13:25:30;3.40;99.90
23669;DHT22;12011;47.422;15.018;2022-12-07T13:28:17;3.40;99.90
23669;DHT22;12011;47.422;15.018;2022-12-07T13:31:02;3.40;99.90
23669;DHT22;12011;47.422;15.018;2022-12-07T13:33:38;3.40;99.90
23669;DHT22;12011;47.422;15.018;2022-12-07T13:36:18;3.40;99.90
23669;DHT22;12011;47.422;15.018;2022-12-07T13:38:55;3.30;99.90
23669;DHT22;12011;47.422;15.018;2022-12-07T13:41:26;3.30;99.90
23669;DHT22;12011;47.422;15.018;2022-12-07T13:44:02;3.30;99.90
23669;DHT22;12011;47.422;15.018;2022-12-07T13:46:47;3.40;99.90
23669;DHT22;12011;47.422;15.018;2022-12-07T13:49:23;3.30;99.90
23669;DHT22;12011;47.422;15.018;2022-12-07T13:52:07;3.30;99.90
23669;DHT22;12011;47.422;15.018;2022-12-07T13:54:47;3.30;99.90
23669;DHT22;12011;47.422;15.018;2022-12-07T13:57:18;3.40;99.90
23669;DHT22;12011;47.422;15.018;2022-12-07T13:59:47;3.50;99.90
23669;DHT22;12011;47.422;15.018;2022-12-07T14:02:22;3.50;99.90
23669;DHT22;12011;47.422;15.018;2022-12-07T14:05:07;3.60;99.90
23669;DHT22;12011;47.422;15.018;2022-12-07T14:07:52;3.50;99.90
23669;DHT22;12011;47.422;15.018;2022-12-07T14:10:28;3.60;99.90
23669;DHT22;12011;47.422;15.018;2022-12-07T14:13:00;3.60;99.90
23669;DHT22;12011;47.422;15.018;2022-12-07T14:15:33;3.50;99.90
23669;DHT22;12011;47.422;15.018;2022-12-07T14:18:03;3.50;99.90
23669;DHT22;12011;47.422;15.018;2022-12-07T14:20:35;3.50;99.90
23669;DHT22;12011;47.422;15.018;2022-12-07T14:23:23;3.50;99.90
23669;DHT22;12011;47.422;15.018;2022-12-07T14:26:07;3.60;99.90
23669;DHT22;12011;47.422;15.018;2022-12-07T14:28:42;3.60;99.90
23669;DHT22;12011;47.422;15.018;2022-12-07T14:31:14;3.60;99.90
23669;DHT22;12011;47.422;15.018;2022-12-07T14:33:46;3.60;99.90
23669;DHT22;12011;47.422;15.018;2022-12-07T14:36:15;3.60;99.90
23669;DHT22;12011;47.422;15.018;2022-12-07T14:38:45;3.50;99.90
23669;DHT22;12011;47.422;15.018;2022-12-07T14:41:21;3.40;99.90
23669;DHT22;12011;47.422;15.018;2022-12-07T14:44:11;3.40;99.90
23669;DHT22;12011;47.422;15.018;2022-12-07T14:46:41;3.10;99.90
23669;DHT22;12011;47.422;15.018;2022-12-07T14:49:10;3.00;99.90
23669;DHT22;12011;47.422;15.018;2022-12-07T14:51:42;2.90;99.90
23669;DHT22;12011;47.422;15.018;2022-12-07T14:54:17;2.90;99.90
23669;DHT22;12011;47.422;15.018;2022-12-07T14:56:50;2.90;99.90
23669;DHT22;12011;47.422;15.018;2022-12-07T14:59:19;2.90;99.90
23669;DHT22;12011;47.422;15.018;2022-12-07T15:01:49;2.80;99.90
23669;DHT22;12011;47.422;15.018;2022-12-07T15:04:19;2.80;99.90
23669;DHT22;12011;47.422;15.018;2022-12-07T15:06:55;2.80;99.90
23669;DHT22;12011;47.422;15.018;2022-12-07T15:09:25;2.70;99.90
23669;DHT22;12011;47.422;15.018;2022-12-07T15:11:58;2.60;99.90
23669;DHT22;12011;47.422;15.018;2022-12-07T15:14:27;2.50;99.90
23669;DHT22;12011;47.422;15.018;2022-12-07T15:16:57;2.40;99.90
23669;DHT22;12011;47.422;15.018;2022-12-07T15:19:27;2.30;99.90
23669;DHT22;12011;47.422;15.018;2022-12-07T15:21:57;2.20;99.90
23669;DHT22;12011;47.422;15.018;2022-12-07T15:24:27;2.10;99.90
23669;DHT22;12011;47.422;15.018;2022-12-07T15:26:59;2.00;99.90
23669;DHT22;12011;47.422;15.018;2022-12-07T15:29:28;1.90;99.90
23669;DHT22;12011;47.422;15.018;2022-12-07T15:31:58;1.80;99.90
23669;DHT22;12011;47.422;15.018;2022-12-07T15:34:28;1.70;99.90
23669;DHT22;12011;47.422;15.018;2022-12-07T15:36:58;1.60;99.90
23669;DHT22;12011;47.422;15.018;2022-12-07T15:39:27;1.40;99.90
23669;DHT22;12011;47.422;15.018;2022-12-07T15:41:59;1.20;99.90
23669;DHT22;12011;47.422;15.018;2022-12-07T15:44:29;1.00;99.90
23669;DHT22;12011;47.422;15.018;2022-12-07T15:47:11;0.90;99.90
23669;DHT22;12011;47.422;15.018;2022-12-07T15:49:40;0.90;99.90
23669;DHT22;12011;47.422;15.018;2022-12-07T15:52:10;0.90;99.90
23669;DHT22;12011;47.422;15.018;2022-12-07T15:54:39;0.70;99.90
23669;DHT22;12011;47.422;15.018;2022-12-07T15:57:12;0.70;99.90
23669;DHT22;12011;47.422;15.018;2022-12-07T15:59:41;0.60;99.90
23669;DHT22;12011;47.422;15.018;2022-12-07T16:02:12;0.50;99.90
23669;DHT22;12011;47.422;15.018;2022-12-07T16:04:42;0.50;99.90
23669;DHT22;12011;47.422;15.018;2022-12-07T16:07:12;0.50;99.90
23669;DHT22;12011;47.422;15.018;2022-12-07T16:09:42;0.50;99.90
23669;DHT22;12011;47.422;15.018;2022-12-07T16:12:14;0.40;99.90
23669;DHT22;12011;47.422;15.018;2022-12-07T16:14:44;0.00;99.90
23669;DHT22;12011;47.422;15.018;2022-12-07T16:17:14;-0.10;99.90
23669;DHT22;12011;47.422;15.018;2022-12-07T16:19:43;-0.20;99.90
23669;DHT22;12011;47.422;15.018;2022-12-07T16:22:12;-0.40;99.90
23669;DHT22;12011;47.422;15.018;2022-12-07T16:24:42;-0.60;99.90
23669;DHT22;12011;47.422;15.018;2022-12-07T16:27:14;-0.60;99.90
23669;DHT22;12011;47.422;15.018;2022-12-07T16:29:44;-0.60;99.90
23669;DHT22;12011;47.422;15.018;2022-12-07T16:32:13;-0.50;99.90
23669;DHT22;12011;47.422;15.018;2022-12-07T16:34:43;-0.40;99.90
23669;DHT22;12011;47.422;15.018;2022-12-07T16:37:12;-0.30;99.90
23669;DHT22;12011;47.422;15.018;2022-12-07T16:39:41;-0.40;99.90
23669;DHT22;12011;47.422;15.018;2022-12-07T16:42:14;-0.40;99.90
23669;DHT22;12011;47.422;15.018;2022-12-07T16:44:43;-0.40;99.90
23669;DHT22;12011;47.422;15.018;2022-12-07T16:47:12;0.00;99.90
23669;DHT22;12011;47.422;15.018;2022-12-07T16:49:43;-0.30;99.90
23669;DHT22;12011;47.422;15.018;2022-12-07T16:52:12;-0.40;99.90
23669;DHT22;12011;47.422;15.018;2022-12-07T16:54:42;-0.30;99.90
23669;DHT22;12011;47.422;15.018;2022-12-07T16:57:14;0.00;99.90
23669;DHT22;12011;47.422;15.018;2022-12-07T16:59:45;-0.30;99.90
23669;DHT22;12011;47.422;15.018;2022-12-07T17:02:14;-0.40;99.90
23669;DHT22;12011;47.422;15.018;2022-12-07T17:04:44;-0.40;99.90
23669;DHT22;12011;47.422;15.018;2022-12-07T17:07:13;-0.10;99.90
23669;DHT22;12011;47.422;15.018;2022-12-07T17:09:43;-0.50;99.90
23669;DHT22;12011;47.422;15.018;2022-12-07T17:12:15;-0.50;99.90
23669;DHT22;12011;47.422;15.018;2022-12-07T17:14:46;-0.50;99.90
23669;DHT22;12011;47.422;15.018;2022-12-07T17:17:29;-0.40;99.90
23669;DHT22;12011;47.422;15.018;2022-12-07T17:19:58;-0.40;99.90